Time,TemperatureF,DewpointF,PressureIn,WindDirection,WindDirectionDegrees,WindSpeedMPH,WindSpeedGustMPH,Humidity,HourlyPrecipIn,Conditions,Clouds,dailyrainin,SolarRadiationWatts/m^2,SoftwareType,DateUTC
2013-05-01 00:12:00,64.0,53.0,-100.00,South,190,8.0,16.0,68,0.00,,,-99.99,1.000000,,2013-05-01 04:12:00,
2013-05-01 00:22:00,64.0,53.0,-100.00,South,190,8.0,16.0,68,0.00,,,-99.99,1.000000,,2013-05-01 04:22:00,
2013-05-01 00:32:00,64.0,53.0,-100.00,South,190,8.0,16.0,68,0.00,,,-99.99,1.000000,,2013-05-01 04:32:00,
2013-05-01 00:43:00,64.0,53.0,-100.00,South,190,8.0,16.0,68,0.00,,,-99.99,1.000000,,2013-05-01 04:43:00,
2013-05-01 01:12:00,63.0,53.0,-100.00,South,175,6.0,11.0,71,0.00,,,-99.99,1.000000,,2013-05-01 05:12:00,
2013-05-01 01:22:00,63.0,53.0,-100.00,South,175,6.0,11.0,71,0.00,,,-99.99,1.000000,,2013-05-01 05:22:00,
2013-05-01 01:32:00,63.0,53.0,-100.00,South,175,6.0,11.0,71,0.00,,,-99.99,1.000000,,2013-05-01 05:32:00,
2013-05-01 01:42:00,63.0,53.0,-100.00,South,175,6.0,11.0,71,0.00,,,-99.99,1.000000,,2013-05-01 05:42:00,
2013-05-01 02:12:00,62.0,53.0,-100.00,SSW,194,7.0,12.0,72,0.00,,,-99.99,1.000000,,2013-05-01 06:12:00,
2013-05-01 02:22:00,62.0,53.0,-100.00,SSW,194,7.0,12.0,72,0.00,,,-99.99,1.000000,,2013-05-01 06:22:00,
2013-05-01 02:32:00,62.0,53.0,-100.00,SSW,194,7.0,12.0,72,0.00,,,-99.99,1.000000,,2013-05-01 06:32:00,
2013-05-01 02:42:00,62.0,53.0,-100.00,SSW,194,7.0,12.0,72,0.00,,,-99.99,1.000000,,2013-05-01 06:42:00,
2013-05-01 03:11:00,62.0,54.0,-100.00,SSW,205,8.0,15.0,74,0.00,,,0.05,1.000000,,2013-05-01 07:11:00,
2013-05-01 03:22:00,62.0,54.0,-100.00,SSW,205,8.0,15.0,74,0.00,,,0.05,1.000000,,2013-05-01 07:22:00,
2013-05-01 03:32:00,62.0,54.0,-100.00,SSW,205,8.0,15.0,74,0.00,,,0.05,1.000000,,2013-05-01 07:32:00,
2013-05-01 03:42:00,62.0,54.0,-100.00,SSW,205,8.0,15.0,74,0.00,,,0.05,1.000000,,2013-05-01 07:42:00,
2013-05-01 04:12:00,61.0,54.0,-100.00,SSW,212,9.0,13.0,77,0.00,,,0.05,1.000000,,2013-05-01 08:12:00,
2013-05-01 04:22:00,61.0,54.0,-100.00,SSW,212,9.0,13.0,77,0.00,,,0.05,1.000000,,2013-05-01 08:22:00,
2013-05-01 04:32:00,61.0,54.0,-100.00,SSW,212,9.0,13.0,77,0.00,,,0.05,1.000000,,2013-05-01 08:32:00,
2013-05-01 04:42:00,61.0,54.0,-100.00,SSW,212,9.0,13.0,77,0.00,,,0.05,1.000000,,2013-05-01 08:42:00,
2013-05-01 05:12:00,60.0,54.0,-100.00,SSW,209,6.0,12.0,80,0.00,,,-99.99,1.000000,,2013-05-01 09:12:00,
2013-05-01 05:22:00,60.0,54.0,-100.00,SSW,209,6.0,12.0,80,0.00,,,-99.99,1.000000,,2013-05-01 09:22:00,
2013-05-01 05:33:00,60.0,54.0,-100.00,SSW,209,6.0,12.0,80,0.00,,,-99.99,1.000000,,2013-05-01 09:33:00,
2013-05-01 05:43:00,60.0,54.0,-100.00,SSW,209,6.0,12.0,80,0.00,,,-99.99,1.000000,,2013-05-01 09:43:00,
2013-05-01 06:12:00,59.0,54.0,-100.00,South,191,5.0,10.0,83,0.00,,,-99.99,1.000000,,2013-05-01 10:12:00,
2013-05-01 06:22:00,59.0,54.0,-100.00,South,191,5.0,10.0,83,0.00,,,-99.99,1.000000,,2013-05-01 10:22:00,
2013-05-01 06:33:00,59.0,54.0,-100.00,South,191,5.0,10.0,83,0.00,,,-99.99,1.000000,,2013-05-01 10:33:00,
2013-05-01 06:42:00,59.0,54.0,-100.00,South,191,5.0,10.0,83,0.00,,,-99.99,1.000000,,2013-05-01 10:42:00,
2013-05-01 07:11:00,56.0,53.0,-100.00,SSE,150,3.0,7.0,91,0.00,,,-99.99,5.000000,,2013-05-01 11:11:00,
2013-05-01 07:22:00,56.0,53.0,-100.00,SSE,150,3.0,7.0,91,0.00,,,-99.99,5.000000,,2013-05-01 11:22:00,
2013-05-01 07:32:00,56.0,53.0,-100.00,SSE,150,3.0,7.0,91,0.00,,,-99.99,5.000000,,2013-05-01 11:32:00,
2013-05-01 07:42:00,56.0,53.0,-100.00,SSE,150,3.0,7.0,91,0.00,,,-99.99,5.000000,,2013-05-01 11:42:00,
2013-05-01 08:11:00,61.0,55.0,-100.00,South,183,4.0,8.0,80,0.00,,,-99.99,72.000000,,2013-05-01 12:11:00,
2013-05-01 08:21:00,61.0,55.0,-100.00,South,183,4.0,8.0,80,0.00,,,-99.99,72.000000,,2013-05-01 12:21:00,
2013-05-01 08:32:00,61.0,55.0,-100.00,South,183,4.0,8.0,80,0.00,,,-99.99,72.000000,,2013-05-01 12:32:00,
2013-05-01 08:42:00,61.0,55.0,-100.00,South,183,4.0,8.0,80,0.00,,,-99.99,72.000000,,2013-05-01 12:42:00,
2013-05-01 09:11:00,65.0,55.0,-100.00,South,190,9.0,13.0,69,0.00,,,-99.99,245.000000,,2013-05-01 13:11:00,
2013-05-01 09:22:00,65.0,55.0,-100.00,South,190,9.0,13.0,69,0.00,,,-99.99,245.000000,,2013-05-01 13:22:00,
2013-05-01 09:32:00,65.0,55.0,-100.00,South,190,9.0,13.0,69,0.00,,,-99.99,245.000000,,2013-05-01 13:32:00,
2013-05-01 09:42:00,65.0,55.0,-100.00,South,190,9.0,13.0,69,0.00,,,-99.99,245.000000,,2013-05-01 13:42:00,
2013-05-01 10:11:00,69.0,55.0,-100.00,SSW,202,10.0,13.0,61,0.00,,,-99.99,388.000000,,2013-05-01 14:11:00,
2013-05-01 10:22:00,69.0,55.0,-100.00,SSW,202,10.0,13.0,61,0.00,,,-99.99,388.000000,,2013-05-01 14:22:00,
2013-05-01 10:32:00,69.0,55.0,-100.00,SSW,202,10.0,13.0,61,0.00,,,-99.99,388.000000,,2013-05-01 14:32:00,
2013-05-01 10:42:00,69.0,55.0,-100.00,SSW,202,10.0,13.0,61,0.00,,,-99.99,388.000000,,2013-05-01 14:42:00,
2013-05-01 11:11:00,74.0,57.0,-100.00,SW,220,7.0,15.0,55,0.00,,,-99.99,573.000000,,2013-05-01 15:11:00,
2013-05-01 11:22:00,74.0,57.0,-100.00,SW,220,7.0,15.0,55,0.00,,,-99.99,573.000000,,2013-05-01 15:22:00,
2013-05-01 11:33:00,74.0,57.0,-100.00,SW,220,7.0,15.0,55,0.00,,,-99.99,573.000000,,2013-05-01 15:33:00,
2013-05-01 11:43:00,74.0,57.0,-100.00,SW,220,7.0,15.0,55,0.00,,,-99.99,573.000000,,2013-05-01 15:43:00,
2013-05-01 12:12:00,78.0,57.0,-100.00,South,180,8.0,17.0,49,0.00,,,0.00,712.000000,,2013-05-01 16:12:00,
2013-05-01 12:22:00,78.0,57.0,-100.00,South,180,8.0,17.0,49,0.00,,,0.00,712.000000,,2013-05-01 16:22:00,
2013-05-01 12:32:00,78.0,57.0,-100.00,South,180,8.0,17.0,49,0.00,,,0.00,712.000000,,2013-05-01 16:32:00,
2013-05-01 12:42:00,78.0,57.0,-100.00,South,180,8.0,17.0,49,0.00,,,0.00,712.000000,,2013-05-01 16:42:00,
2013-05-01 13:12:00,81.0,58.0,-100.00,South,184,8.0,17.0,45,0.00,,,0.00,801.000000,,2013-05-01 17:12:00,
2013-05-01 13:22:00,81.0,58.0,-100.00,South,184,8.0,17.0,45,0.00,,,0.00,801.000000,,2013-05-01 17:22:00,
2013-05-01 13:32:00,81.0,58.0,-100.00,South,184,8.0,17.0,45,0.00,,,0.00,801.000000,,2013-05-01 17:32:00,
2013-05-01 13:42:00,81.0,58.0,-100.00,South,184,8.0,17.0,45,0.00,,,0.00,801.000000,,2013-05-01 17:42:00,
2013-05-01 14:11:00,82.0,55.0,-100.00,SW,235,12.0,20.0,40,0.00,,,0.00,861.000000,,2013-05-01 18:11:00,
2013-05-01 14:22:00,82.0,55.0,-100.00,SW,235,12.0,20.0,40,0.00,,,0.00,861.000000,,2013-05-01 18:22:00,
2013-05-01 14:32:00,82.0,55.0,-100.00,SW,235,12.0,20.0,40,0.00,,,0.00,861.000000,,2013-05-01 18:32:00,
2013-05-01 14:42:00,82.0,55.0,-100.00,SW,235,12.0,20.0,40,0.00,,,0.00,861.000000,,2013-05-01 18:42:00,
2013-05-01 15:11:00,84.0,54.0,-100.00,South,189,12.0,22.0,36,0.00,,,0.00,830.000000,,2013-05-01 19:11:00,
2013-05-01 15:22:00,84.0,54.0,-100.00,South,189,12.0,22.0,36,0.00,,,0.00,830.000000,,2013-05-01 19:22:00,
2013-05-01 15:32:00,84.0,54.0,-100.00,South,189,12.0,22.0,36,0.00,,,0.00,830.000000,,2013-05-01 19:32:00,
2013-05-01 15:43:00,84.0,54.0,-100.00,South,189,12.0,22.0,36,0.00,,,0.00,830.000000,,2013-05-01 19:43:00,
2013-05-01 16:11:00,84.0,54.0,-100.00,SSW,193,12.0,25.0,36,0.00,,,0.00,780.000000,,2013-05-01 20:11:00,
2013-05-01 16:22:00,84.0,54.0,-100.00,SSW,193,12.0,25.0,36,0.00,,,0.00,780.000000,,2013-05-01 20:22:00,
2013-05-01 16:32:00,84.0,54.0,-100.00,SSW,193,12.0,25.0,36,0.00,,,0.00,780.000000,,2013-05-01 20:32:00,
2013-05-01 16:42:00,84.0,54.0,-100.00,SSW,193,12.0,25.0,36,0.00,,,0.00,780.000000,,2013-05-01 20:42:00,
2013-05-01 17:11:00,84.0,56.0,-100.00,South,173,10.0,22.0,39,0.00,,,0.00,709.000000,,2013-05-01 21:11:00,
2013-05-01 17:22:00,84.0,56.0,-100.00,South,173,10.0,22.0,39,0.00,,,0.00,709.000000,,2013-05-01 21:22:00,
2013-05-01 17:32:00,84.0,56.0,-100.00,South,173,10.0,22.0,39,0.00,,,0.00,709.000000,,2013-05-01 21:32:00,
2013-05-01 17:43:00,84.0,56.0,-100.00,South,173,10.0,22.0,39,0.00,,,0.00,709.000000,,2013-05-01 21:43:00,
2013-05-01 18:12:00,82.0,56.0,-100.00,SSE,166,11.0,22.0,41,0.00,,,0.00,526.000000,,2013-05-01 22:12:00,
2013-05-01 18:23:00,82.0,56.0,-100.00,SSE,166,11.0,22.0,41,0.00,,,0.00,526.000000,,2013-05-01 22:23:00,
2013-05-01 18:33:00,82.0,56.0,-100.00,SSE,166,11.0,22.0,41,0.00,,,0.00,526.000000,,2013-05-01 22:33:00,
2013-05-01 18:42:00,82.0,56.0,-100.00,SSE,166,11.0,22.0,41,0.00,,,0.00,526.000000,,2013-05-01 22:42:00,
2013-05-01 19:12:00,80.0,55.0,-100.00,South,169,9.0,20.0,43,0.00,,,0.00,336.000000,,2013-05-01 23:12:00,
2013-05-01 19:22:00,80.0,55.0,-100.00,South,169,9.0,20.0,43,0.00,,,0.00,336.000000,,2013-05-01 23:22:00,
2013-05-01 19:32:00,80.0,55.0,-100.00,South,169,9.0,20.0,43,0.00,,,0.00,336.000000,,2013-05-01 23:32:00,
2013-05-01 19:42:00,80.0,55.0,-100.00,South,169,9.0,20.0,43,0.00,,,0.00,336.000000,,2013-05-01 23:42:00,
2013-05-01 20:11:00,75.0,55.0,-100.00,SSE,148,8.0,19.0,50,0.00,,,0.00,167.000000,,2013-05-02 00:11:00,
2013-05-01 20:22:00,75.0,55.0,-100.00,SSE,148,8.0,19.0,50,0.00,,,0.00,167.000000,,2013-05-02 00:22:00,
2013-05-01 20:32:00,75.0,55.0,-100.00,SSE,148,8.0,19.0,50,0.00,,,0.00,167.000000,,2013-05-02 00:32:00,
2013-05-01 20:42:00,75.0,55.0,-100.00,SSE,148,8.0,19.0,50,0.00,,,0.00,167.000000,,2013-05-02 00:42:00,
2013-05-01 21:11:00,69.0,54.0,-100.00,SE,134,4.0,13.0,59,0.00,,,0.00,35.000000,,2013-05-02 01:11:00,
2013-05-01 21:22:00,69.0,54.0,-100.00,SE,134,4.0,13.0,59,0.00,,,0.00,35.000000,,2013-05-02 01:22:00,
2013-05-01 21:32:00,69.0,54.0,-100.00,SE,134,4.0,13.0,59,0.00,,,0.00,35.000000,,2013-05-02 01:32:00,
2013-05-01 21:42:00,69.0,54.0,-100.00,SE,134,4.0,13.0,59,0.00,,,0.00,35.000000,,2013-05-02 01:42:00,
2013-05-01 22:12:00,66.0,54.0,-100.00,SSE,155,6.0,9.0,65,0.00,,,0.00,1.000000,,2013-05-02 02:12:00,
2013-05-01 22:22:00,66.0,54.0,-100.00,SSE,155,6.0,9.0,65,0.00,,,0.00,1.000000,,2013-05-02 02:22:00,
2013-05-01 22:32:00,66.0,54.0,-100.00,SSE,155,6.0,9.0,65,0.00,,,0.00,1.000000,,2013-05-02 02:32:00,
2013-05-01 22:42:00,66.0,54.0,-100.00,SSE,155,6.0,9.0,65,0.00,,,0.00,1.000000,,2013-05-02 02:42:00,
2013-05-01 23:11:00,62.0,52.0,-100.00,SE,129,3.0,7.0,71,0.00,,,0.00,1.000000,,2013-05-02 03:11:00,
2013-05-01 23:22:00,62.0,52.0,-100.00,SE,129,3.0,7.0,71,0.00,,,0.00,1.000000,,2013-05-02 03:22:00,
2013-05-01 23:33:00,62.0,52.0,-100.00,SE,129,3.0,7.0,71,0.00,,,0.00,1.000000,,2013-05-02 03:33:00,
2013-05-01 23:43:00,62.0,52.0,-100.00,SE,129,3.0,7.0,71,0.00,,,0.00,1.000000,,2013-05-02 03:43:00,